Time;durP1;ratioP1;P1;durP2;ratioP2;P2;SDS_P1;SDS_P2;PMS_P1;PMS_P2;Temp;Humidity;BMP_temperature;BMP_pressure;BME280_temperature;BME280_humidity;BME280_pressure;Samples;Min_cycle;Max_cycle;Signal;HPM_P1;HPM_P2
2022/06/25 00:01:13;;;;;;;2.05;1.30;;;23.50;64.40;;;;;;4974877;28;87667;-66
2022/06/25 00:03:41;;;;;;;2.17;1.10;;;23.40;64.40;;;;;;4976878;28;90809;-66
2022/06/25 00:06:08;;;;;;;1.48;1.38;;;23.40;64.50;;;;;;4967814;28;88985;-66
2022/06/25 00:08:35;;;;;;;1.40;1.30;;;23.50;64.50;;;;;;4974606;28;87447;-66
2022/06/25 00:11:01;;;;;;;1.73;1.30;;;23.40;64.40;;;;;;4973168;28;88202;-66
2022/06/25 00:13:27;;;;;;;1.60;1.10;;;23.40;64.40;;;;;;4974969;28;90805;-70
2022/06/25 00:15:53;;;;;;;1.15;1.05;;;23.40;64.40;;;;;;4980183;28;87494;-68
2022/06/25 00:18:19;;;;;;;1.80;1.55;;;23.40;64.30;;;;;;4987772;28;90150;-66
2022/06/25 00:20:46;;;;;;;1.30;1.10;;;23.40;64.30;;;;;;4977391;28;87460;-66
2022/06/25 00:23:12;;;;;;;1.75;1.08;;;23.40;64.30;;;;;;4979106;28;91157;-68
2022/06/25 00:25:38;;;;;;;1.00;1.00;;;23.50;64.50;;;;;;4975714;28;88197;-66
2022/06/25 00:28:04;;;;;;;1.45;1.10;;;23.40;64.50;;;;;;4974667;28;90247;-67
2022/06/25 00:30:30;;;;;;;1.30;1.20;;;23.40;64.50;;;;;;4972369;28;93776;-67
2022/06/25 00:32:56;;;;;;;1.25;1.15;;;23.40;64.50;;;;;;4975119;28;92694;-67
2022/06/25 00:35:23;;;;;;;1.38;1.27;;;23.40;64.30;;;;;;4979456;28;87431;-71
2022/06/25 00:37:48;;;;;;;1.35;1.23;;;23.40;64.40;;;;;;4972007;28;86972;-68
2022/06/25 00:40:14;;;;;;;1.30;1.20;;;23.40;64.40;;;;;;4976584;28;88047;-69
2022/06/25 00:42:49;;;;;;;1.00;0.90;;;23.40;64.40;;;;;;4985071;28;87365;-68
2022/06/25 00:45:15;;;;;;;1.25;1.15;;;23.40;64.40;;;;;;4971823;28;87086;-66
2022/06/25 00:47:41;;;;;;;1.08;0.98;;;23.40;64.30;;;;;;4975173;28;86853;-71
2022/06/25 00:50:08;;;;;;;1.00;0.90;;;23.40;64.40;;;;;;4978569;28;87679;-66
2022/06/25 00:52:37;;;;;;;1.17;1.08;;;23.40;64.40;;;;;;4974951;28;91544;-66
2022/06/25 00:55:10;;;;;;;;;;;23.40;64.50;;;;;;4970739;28;88640;-66
2022/06/25 00:57:42;;;;;;;1.30;1.20;;;23.40;64.50;;;;;;4971059;28;91246;-66
2022/06/25 01:00:11;;;;;;;1.10;1.00;;;23.40;64.50;;;;;;4970575;28;90717;-71
2022/06/25 01:02:37;;;;;;;;;;;23.40;64.20;;;;;;4972445;28;89411;-66
2022/06/25 01:05:08;;;;;;;1.20;1.10;;;23.40;64.30;;;;;;4980221;28;87065;-67
2022/06/25 01:07:37;;;;;;;1.08;0.98;;;23.40;64.00;;;;;;4975541;28;87629;-65
2022/06/25 01:10:06;;;;;;;1.13;1.02;;;23.40;64.30;;;;;;4973776;28;88114;-66
2022/06/25 01:12:32;;;;;;;0.93;0.90;;;23.40;64.20;;;;;;4970375;28;90646;-66
2022/06/25 01:15:27;;;;;;;1.30;1.17;;;23.40;64.30;;;;;;4970468;28;87640;-67
2022/06/25 01:17:53;;;;;;;1.98;1.30;;;23.40;64.30;;;;;;4980592;28;88243;-68
2022/06/25 01:20:23;;;;;;;1.20;1.10;;;23.40;64.30;;;;;;4971044;28;89315;-67
2022/06/25 01:22:53;;;;;;;1.25;1.10;;;23.40;64.40;;;;;;4969603;28;91503;-67
2022/06/25 01:25:18;;;;;;;;;;;23.40;64.30;;;;;;4972216;28;88172;-67
2022/06/25 01:27:48;;;;;;;1.23;1.13;;;23.40;64.40;;;;;;4973473;28;89600;-70
2022/06/25 01:30:15;;;;;;;1.15;1.00;;;23.40;64.30;;;;;;4969166;28;91237;-68
2022/06/25 01:32:40;;;;;;;2.15;1.08;;;23.40;64.40;;;;;;4971057;28;88066;-65
2022/06/25 01:35:09;;;;;;;1.23;1.10;;;23.40;64.40;;;;;;4971841;28;87337;-65
2022/06/25 01:37:36;;;;;;;1.27;1.10;;;23.40;64.40;;;;;;4970853;28;86804;-69
2022/06/25 01:40:03;;;;;;;1.20;1.10;;;23.40;64.30;;;;;;4970506;28;88662;-66
2022/06/25 01:45:13;;;;;;;1.60;0.98;;;23.40;64.60;;;;;;4970488;28;88748;-67
2022/06/25 01:47:39;;;;;;;1.30;1.20;;;23.40;64.70;;;;;;4972995;28;88101;-69
2022/06/25 01:50:07;;;;;;;2.25;1.15;;;23.30;64.40;;;;;;4968848;28;91712;-67
2022/06/25 01:52:33;;;;;;;1.20;1.10;;;23.40;64.40;;;;;;4985374;28;89323;-68
2022/06/25 01:54:59;;;;;;;1.30;1.10;;;23.30;64.40;;;;;;4975240;28;87642;-70
2022/06/25 01:57:25;;;;;;;0.93;0.93;;;23.40;64.40;;;;;;4971260;28;87483;-65
2022/06/25 01:59:51;;;;;;;1.40;1.10;;;23.40;64.50;;;;;;4969525;28;90917;-68
2022/06/25 02:02:17;;;;;;;0.82;0.82;;;23.30;64.40;;;;;;4971455;28;87251;-66
2022/06/25 02:04:42;;;;;;;1.27;1.17;;;23.30;64.40;;;;;;4973707;28;87952;-66
2022/06/25 02:07:08;;;;;;;1.23;1.13;;;23.30;64.50;;;;;;4975212;28;87675;-70
2022/06/25 02:09:34;;;;;;;1.20;1.10;;;23.30;64.30;;;;;;4970630;28;88266;-67
2022/06/25 02:11:59;;;;;;;1.75;1.20;;;23.30;64.30;;;;;;4971277;28;88678;-71
2022/06/25 02:14:26;;;;;;;1.98;1.00;;;23.40;64.30;;;;;;4974477;28;86886;-66
2022/06/25 02:16:54;;;;;;;1.30;1.20;;;23.30;64.30;;;;;;4972032;28;87455;-67
2022/06/25 02:19:20;;;;;;;1.65;1.10;;;23.30;64.50;;;;;;4970078;28;88118;-66
2022/06/25 02:21:46;;;;;;;2.08;1.08;;;23.30;64.40;;;;;;4969986;28;88495;-68
2022/06/25 02:24:11;;;;;;;1.40;1.30;;;23.40;64.50;;;;;;4973484;28;88377;-66
2022/06/25 02:26:37;;;;;;;1.45;1.10;;;23.40;64.30;;;;;;4973948;28;89524;-65
2022/06/25 02:29:02;;;;;;;0.93;0.93;;;23.30;64.50;;;;;;4969532;28;91112;-66
2022/06/25 02:31:28;;;;;;;1.02;1.02;;;23.30;64.20;;;;;;4974013;28;87503;-70
2022/06/25 02:33:54;;;;;;;1.10;1.00;;;23.30;64.30;;;;;;4969707;28;88592;-66
2022/06/25 02:36:20;;;;;;;1.30;1.20;;;23.30;64.60;;;;;;4970478;28;87686;-66
2022/06/25 02:38:45;;;;;;;1.30;1.20;;;23.30;64.50;;;;;;4971846;28;87225;-68
2022/06/25 02:41:11;;;;;;;1.25;1.10;;;23.30;64.40;;;;;;4970697;28;88298;-68
2022/06/25 02:43:37;;;;;;;1.10;1.00;;;23.30;64.70;;;;;;4970408;28;87275;-67
2022/06/25 02:46:02;;;;;;;1.25;1.15;;;23.30;64.40;;;;;;4972751;28;87708;-65
2022/06/25 02:48:28;;;;;;;0.93;0.90;;;23.30;64.30;;;;;;4974007;28;88020;-67
2022/06/25 02:50:56;;;;;;;1.23;1.02;;;23.30;64.40;;;;;;4968152;28;91328;-65
2022/06/25 02:53:22;;;;;;;1.20;1.10;;;23.30;64.50;;;;;;4970438;28;87428;-68
2022/06/25 03:01:16;;;;;;;1.00;1.00;;;23.30;64.40;;;;;;4974484;28;87940;-66
2022/06/25 03:03:41;;;;;;;1.40;1.02;;;23.30;64.50;;;;;;4975705;28;87939;-70
2022/06/25 03:06:07;;;;;;;1.13;1.02;;;23.30;64.60;;;;;;4969908;28;87478;-66
2022/06/25 03:08:32;;;;;;;0.93;0.90;;;23.30;64.60;;;;;;4975442;28;88135;-71
2022/06/25 03:10:58;;;;;;;1.40;1.00;;;23.30;64.50;;;;;;4969811;28;87801;-67
2022/06/25 03:13:24;;;;;;;0.95;0.95;;;23.30;64.50;;;;;;4974947;28;87527;-68
2022/06/25 03:15:49;;;;;;;0.90;0.90;;;23.30;64.60;;;;;;4970011;28;87425;-66
2022/06/25 03:18:15;;;;;;;1.25;1.15;;;23.30;64.60;;;;;;4968821;28;88321;-66
2022/06/25 03:20:41;;;;;;;1.02;0.85;;;23.30;64.50;;;;;;4970199;28;87975;-69
2022/06/25 03:23:06;;;;;;;1.17;1.08;;;23.30;64.50;;;;;;4972073;28;88769;-70
2022/06/25 03:25:32;;;;;;;1.23;1.13;;;23.30;65.30;;;;;;4974408;28;87248;-69
2022/06/25 03:27:58;;;;;;;1.20;1.05;;;23.30;64.40;;;;;;4967784;28;89851;-65
2022/06/25 03:30:24;;;;;;;1.15;1.05;;;23.30;64.40;;;;;;4970186;28;89343;-66
2022/06/25 03:32:49;;;;;;;1.95;1.38;;;23.30;64.40;;;;;;4972909;28;87068;-68
2022/06/25 03:35:15;;;;;;;1.35;1.25;;;23.20;64.30;;;;;;4969678;28;87857;-66
2022/06/25 03:37:41;;;;;;;1.23;1.10;;;23.30;64.40;;;;;;4973451;28;88538;-70
2022/06/25 03:40:07;;;;;;;1.20;1.10;;;23.30;64.40;;;;;;4974002;28;86457;-65
2022/06/25 03:42:33;;;;;;;1.50;1.13;;;23.30;64.50;;;;;;4975307;28;88007;-66
2022/06/25 03:44:58;;;;;;;1.00;1.00;;;23.30;64.50;;;;;;4970933;28;87450;-70
2022/06/25 03:47:24;;;;;;;1.20;1.10;;;23.30;64.40;;;;;;4974478;28;89072;-69
2022/06/25 03:49:49;;;;;;;1.08;1.00;;;23.20;64.20;;;;;;4975981;28;91627;-67
2022/06/25 03:52:15;;;;;;;1.08;1.00;;;23.30;64.50;;;;;;4974742;28;87771;-66
2022/06/25 03:54:41;;;;;;;0.93;0.90;;;23.30;64.60;;;;;;4967802;28;90142;-66
2022/06/25 03:57:07;;;;;;;1.10;1.00;;;23.20;64.60;;;;;;4969861;28;88500;-65
2022/06/25 03:59:33;;;;;;;1.30;1.10;;;23.20;64.70;;;;;;4968482;28;91120;-65
2022/06/25 04:01:58;;;;;;;1.40;1.10;;;23.20;64.40;;;;;;4970568;28;87932;-69
2022/06/25 04:04:24;;;;;;;1.10;1.00;;;23.20;64.40;;;;;;4969728;28;87265;-70
2022/06/25 04:06:50;;;;;;;1.15;1.05;;;23.20;64.40;;;;;;4975256;28;88233;-69
2022/06/25 04:09:15;;;;;;;1.10;1.00;;;23.20;64.30;;;;;;4969133;28;88035;-66
2022/06/25 04:11:41;;;;;;;1.10;1.00;;;23.20;64.40;;;;;;4970522;28;88593;-68
2022/06/25 04:14:07;;;;;;;1.38;1.17;;;23.20;64.30;;;;;;4969348;28;88231;-67
2022/06/25 04:16:33;;;;;;;1.17;1.10;;;23.20;64.30;;;;;;4976410;28;88011;-66
2022/06/25 04:19:01;;;;;;;1.08;1.00;;;23.30;64.40;;;;;;4969901;28;87899;-65
2022/06/25 04:21:27;;;;;;;1.17;1.08;;;23.20;64.30;;;;;;4969817;28;86957;-68
2022/06/25 04:23:52;;;;;;;1.33;1.23;;;23.30;64.20;;;;;;4969098;28;90655;-67
2022/06/25 04:26:18;;;;;;;1.25;1.15;;;23.20;64.50;;;;;;4968831;28;90622;-65
2022/06/25 04:31:29;;;;;;;1.45;1.35;;;23.30;64.60;;;;;;4974240;28;88158;-71
2022/06/25 04:33:55;;;;;;;0.98;0.95;;;23.20;64.30;;;;;;4969840;28;87225;-66
2022/06/25 04:36:21;;;;;;;1.10;1.00;;;23.20;64.20;;;;;;4968528;28;89169;-66
2022/06/25 04:38:46;;;;;;;1.17;1.00;;;23.30;64.20;;;;;;4972899;28;89224;-70
2022/06/25 04:41:12;;;;;;;1.00;0.90;;;23.30;64.20;;;;;;4969968;28;87659;-67
2022/06/25 04:43:38;;;;;;;1.17;1.08;;;23.30;64.20;;;;;;4989155;28;89750;-70
2022/06/25 04:46:03;;;;;;;1.17;0.90;;;23.30;64.30;;;;;;4972082;28;88112;-65
2022/06/25 04:48:29;;;;;;;1.13;1.02;;;23.30;64.40;;;;;;4974076;28;87262;-66
2022/06/25 04:50:55;;;;;;;1.10;1.00;;;23.30;64.30;;;;;;4970893;28;87941;-70
2022/06/25 04:53:20;;;;;;;1.40;1.30;;;23.30;64.30;;;;;;4976849;28;88060;-69
2022/06/25 04:55:46;;;;;;;1.30;1.20;;;23.30;64.30;;;;;;4968735;28;88665;-70
2022/06/25 04:58:12;;;;;;;1.50;1.08;;;23.30;64.30;;;;;;4978144;28;87865;-66
2022/06/25 05:00:38;;;;;;;2.00;0.93;;;23.30;64.10;;;;;;4970995;28;88899;-67
2022/06/25 05:03:06;;;;;;;1.17;1.08;;;23.30;64.00;;;;;;4970864;28;90257;-69
2022/06/25 05:05:31;;;;;;;1.10;1.00;;;23.30;64.00;;;;;;4975164;28;90939;-66
2022/06/25 05:07:57;;;;;;;1.60;1.00;;;23.30;64.00;;;;;;4971264;28;87472;-66
2022/06/25 05:10:23;;;;;;;0.82;0.82;;;23.40;64.00;;;;;;4972100;28;87123;-68
2022/06/25 05:15:33;;;;;;;0.90;0.90;;;23.40;64.00;;;;;;4979500;28;87218;-67
2022/06/25 05:17:59;;;;;;;1.20;1.10;;;23.40;64.10;;;;;;4975343;28;90667;-65
2022/06/25 05:20:25;;;;;;;0.88;0.88;;;23.40;64.00;;;;;;4971681;28;87513;-66
2022/06/25 05:22:54;;;;;;;1.60;0.90;;;23.40;64.00;;;;;;4974365;28;87370;-69
2022/06/25 05:25:19;;;;;;;0.93;0.90;;;23.40;64.00;;;;;;4979321;28;88895;-66
2022/06/25 05:27:45;;;;;;;1.00;0.90;;;23.40;64.10;;;;;;4969943;28;91591;-66
2022/06/25 05:30:11;;;;;;;1.23;1.05;;;23.40;64.20;;;;;;4974205;28;87572;-65
2022/06/25 05:32:36;;;;;;;1.00;1.00;;;23.40;64.20;;;;;;4972633;28;89826;-65
2022/06/25 05:35:02;;;;;;;0.80;0.80;;;23.40;64.20;;;;;;4968919;28;91454;-71
2022/06/25 05:37:28;;;;;;;1.10;1.00;;;23.40;64.30;;;;;;4975500;28;88136;-67
2022/06/25 05:39:54;;;;;;;0.82;0.82;;;23.40;64.10;;;;;;4972462;28;87916;-67
2022/06/25 05:42:22;;;;;;;1.38;1.20;;;23.40;64.30;;;;;;4973482;28;90213;-70
2022/06/25 05:44:48;;;;;;;0.90;0.90;;;23.40;64.50;;;;;;4972482;28;91197;-67
2022/06/25 05:47:14;;;;;;;0.80;0.80;;;23.40;64.10;;;;;;4969689;28;89926;-67
2022/06/25 05:49:39;;;;;;;0.98;0.93;;;23.40;64.30;;;;;;4978165;28;88674;-67
2022/06/25 05:52:06;;;;;;;1.10;1.00;;;23.40;64.20;;;;;;4971930;28;87975;-66
2022/06/25 05:54:31;;;;;;;1.20;1.10;;;23.40;64.00;;;;;;4973658;28;87575;-66
2022/06/25 05:56:57;;;;;;;0.95;0.95;;;23.40;64.40;;;;;;4971623;28;87949;-65
2022/06/25 05:59:22;;;;;;;1.13;1.02;;;23.40;64.30;;;;;;4971506;28;87496;-67
2022/06/25 06:01:48;;;;;;;1.08;1.05;;;23.40;64.50;;;;;;4978343;28;88058;-65
2022/06/25 06:04:13;;;;;;;0.80;0.80;;;23.40;64.50;;;;;;4973592;28;88337;-65
2022/06/25 06:06:42;;;;;;;1.17;1.08;;;23.40;64.40;;;;;;4979527;28;87830;-68
2022/06/25 06:09:07;;;;;;;1.10;1.00;;;23.40;64.50;;;;;;4968873;28;88083;-67
2022/06/25 06:11:33;;;;;;;1.10;0.82;;;23.40;64.60;;;;;;4982151;28;87501;-66
2022/06/25 06:13:58;;;;;;;1.13;1.02;;;23.50;64.70;;;;;;4973502;28;89198;-66
2022/06/25 06:16:24;;;;;;;1.00;1.00;;;23.40;64.30;;;;;;4976124;28;88318;-66
2022/06/25 06:18:49;;;;;;;1.00;0.90;;;23.40;64.60;;;;;;4977162;28;87502;-69
2022/06/25 06:21:15;;;;;;;1.27;1.00;;;23.40;64.40;;;;;;4975383;28;87439;-68
2022/06/25 06:23:41;;;;;;;0.85;0.85;;;23.40;64.50;;;;;;4979969;28;88352;-69
2022/06/25 06:26:06;;;;;;;3.15;1.33;;;23.40;64.20;;;;;;4976061;28;88197;-65
2022/06/25 06:28:32;;;;;;;3.95;1.10;;;23.40;62.10;;;;;;4971437;28;87551;-65
2022/06/25 06:30:57;;;;;;;1.73;1.30;;;23.40;62.00;;;;;;4970489;28;86702;-68
2022/06/25 06:33:24;;;;;;;2.65;1.13;;;23.40;61.90;;;;;;4973824;28;87686;-69
2022/06/25 06:35:49;;;;;;;5.97;1.20;;;23.50;61.90;;;;;;4970792;28;88147;-66
2022/06/25 06:38:15;;;;;;;8.35;1.48;;;23.50;62.40;;;;;;4969996;28;88241;-68
2022/06/25 06:40:41;;;;;;;6.57;1.88;;;23.50;62.30;;;;;;4974234;28;87460;-67
2022/06/25 06:43:06;;;;;;;19.60;5.68;;;23.50;62.10;;;;;;4971661;28;90826;-65
2022/06/25 06:45:32;;;;;;;28.02;7.40;;;23.50;62.00;;;;;;4978271;28;87397;-66
2022/06/25 06:47:58;;;;;;;28.63;6.38;;;23.50;62.00;;;;;;4973239;28;87627;-69
2022/06/25 06:50:24;;;;;;;25.25;6.78;;;23.40;61.90;;;;;;4970641;28;87586;-70
2022/06/25 06:52:49;;;;;;;27.25;6.13;;;23.50;62.20;;;;;;4970136;28;87359;-67
2022/06/25 06:55:15;;;;;;;25.48;6.90;;;23.50;62.10;;;;;;4970530;28;87911;-67
2022/06/25 06:57:40;;;;;;;22.08;6.03;;;23.50;62.20;;;;;;4970742;28;87880;-70
2022/06/25 07:00:07;;;;;;;36.20;8.40;;;23.40;61.70;;;;;;4978251;28;87292;-68
2022/06/25 07:02:33;;;;;;;33.05;8.10;;;23.50;61.10;;;;;;4967549;28;92759;-65
2022/06/25 07:04:59;;;;;;;26.20;6.38;;;23.40;61.10;;;;;;4978670;28;88438;-66
2022/06/25 07:07:25;;;;;;;18.95;4.55;;;23.40;60.90;;;;;;4968854;28;87738;-66
2022/06/25 07:09:50;;;;;;;22.15;5.53;;;23.40;60.80;;;;;;4970406;28;90337;-65
2022/06/25 07:12:16;;;;;;;26.65;6.57;;;23.40;60.70;;;;;;4970026;28;87961;-66
2022/06/25 07:14:42;;;;;;;13.80;4.53;;;23.40;60.90;;;;;;4969345;28;88185;-66
2022/06/25 07:17:08;;;;;;;13.95;4.18;;;23.40;60.70;;;;;;4970524;28;87257;-67
2022/06/25 07:19:33;;;;;;;13.50;3.47;;;23.40;60.60;;;;;;4975896;28;86816;-65
2022/06/25 07:21:59;;;;;;;9.73;2.85;;;23.40;60.80;;;;;;4969502;28;88620;-69
2022/06/25 07:24:25;;;;;;;16.92;4.28;;;23.40;60.70;;;;;;4975180;28;87531;-68
2022/06/25 07:26:51;;;;;;;16.80;4.47;;;23.50;61.30;;;;;;4971803;28;88525;-67
2022/06/25 07:29:16;;;;;;;36.33;6.70;;;23.40;61.20;;;;;;4973798;28;87003;-67
2022/06/25 07:31:42;;;;;;;22.48;5.05;;;23.40;60.90;;;;;;4970427;28;88581;-67
2022/06/25 07:34:08;;;;;;;21.63;5.13;;;23.40;61.30;;;;;;4970572;28;89270;-66
2022/06/25 07:36:34;;;;;;;30.90;5.38;;;23.40;61.10;;;;;;4970820;28;87569;-66
2022/06/25 07:39:03;;;;;;;19.45;4.18;;;23.40;61.40;;;;;;4967416;28;90014;-70
2022/06/25 07:41:29;;;;;;;19.27;4.70;;;23.40;61.20;;;;;;4975241;28;88675;-65
2022/06/25 07:43:55;;;;;;;14.18;3.38;;;23.40;60.80;;;;;;4967777;28;91203;-66
2022/06/25 07:46:20;;;;;;;13.05;2.88;;;23.50;60.90;;;;;;4973323;28;88849;-66
2022/06/25 07:48:46;;;;;;;11.90;3.45;;;23.40;60.70;;;;;;4969445;28;87417;-67
2022/06/25 07:53:56;;;;;;;20.90;4.65;;;23.40;61.10;;;;;;4968158;28;87762;-67
2022/06/25 07:56:22;;;;;;;32.70;5.60;;;23.40;60.60;;;;;;4968692;28;87890;-71
2022/06/25 07:58:48;;;;;;;18.23;4.30;;;23.50;61.20;;;;;;4967053;28;90147;-65
2022/06/25 08:01:13;;;;;;;31.23;5.68;;;23.40;61.40;;;;;;4971502;28;88078;-67
2022/06/25 08:03:42;;;;;;;20.05;4.40;;;23.40;62.20;;;;;;4968439;28;87791;-67
2022/06/25 08:06:08;;;;;;;21.30;4.20;;;23.40;61.20;;;;;;4969238;28;87366;-67
2022/06/25 08:08:33;;;;;;;15.60;3.63;;;23.40;61.20;;;;;;4980460;28;87317;-67
2022/06/25 08:10:59;;;;;;;14.25;3.83;;;23.40;61.20;;;;;;4970822;28;90659;-66
2022/06/25 08:13:26;;;;;;;13.27;3.15;;;23.50;61.20;;;;;;4918573;28;88172;-66
2022/06/25 08:15:52;;;;;;;15.38;4.22;;;23.50;61.40;;;;;;4972657;28;88390;-71
2022/06/25 08:18:18;;;;;;;12.10;3.35;;;23.50;61.50;;;;;;4971755;28;88147;-69
2022/06/25 08:20:44;;;;;;;15.27;3.50;;;23.50;61.50;;;;;;4977022;28;87584;-70
2022/06/25 08:23:10;;;;;;;12.40;3.00;;;23.40;61.30;;;;;;4972129;28;87770;-73
2022/06/25 08:25:36;;;;;;;11.93;3.17;;;23.50;61.80;;;;;;4971285;28;87412;-70
2022/06/25 08:28:02;;;;;;;13.40;3.08;;;23.50;61.90;;;;;;4976672;28;90757;-75
2022/06/25 08:30:27;;;;;;;12.00;3.35;;;23.40;61.90;;;;;;4974021;28;91773;-71
2022/06/25 08:32:54;;;;;;;21.33;5.15;;;23.50;61.90;;;;;;4972254;28;87889;-74
2022/06/25 08:35:20;;;;;;;22.15;5.47;;;23.50;61.60;;;;;;4975538;28;87984;-69
2022/06/25 08:37:49;;;;;;;21.13;5.47;;;23.50;61.80;;;;;;4975613;28;87870;-69
2022/06/25 08:40:16;;;;;;;;;;;23.50;61.90;;;;;;4989814;28;90888;-74
2022/06/25 08:42:42;;;;;;;17.95;4.85;;;23.50;61.90;;;;;;4978690;28;88941;-73
2022/06/25 08:45:11;;;;;;;10.98;2.90;;;23.50;61.50;;;;;;4973274;28;88078;-72
2022/06/25 08:47:43;;;;;;;9.27;2.92;;;23.50;61.00;;;;;;4970144;28;89856;-70
2022/06/25 08:50:10;;;;;;;9.07;2.25;;;23.40;61.30;;;;;;4981010;28;88073;-80
2022/06/25 08:52:37;;;;;;;10.98;2.85;;;23.50;61.40;;;;;;4975502;28;90174;-70
2022/06/25 08:55:04;;;;;;;13.00;3.17;;;23.50;61.20;;;;;;4975740;28;87321;-70
2022/06/25 08:57:30;;;;;;;12.63;1.98;;;23.50;61.30;;;;;;4976313;28;86989;-69
2022/06/25 08:59:56;;;;;;;10.57;2.63;;;23.50;61.50;;;;;;4979435;28;87642;-72
2022/06/25 09:02:21;;;;;;;12.18;2.08;;;23.50;61.00;;;;;;4973890;28;88076;-70
2022/06/25 09:04:47;;;;;;;18.65;3.00;;;23.50;60.80;;;;;;4971242;28;88510;-70
2022/06/25 09:07:13;;;;;;;5.70;1.67;;;23.50;60.70;;;;;;4971567;28;87374;-71
2022/06/25 09:09:39;;;;;;;9.68;1.90;;;23.50;60.60;;;;;;4971260;28;88076;-71
2022/06/25 09:12:10;;;;;;;6.53;1.65;;;23.50;60.60;;;;;;4973047;28;87754;-73
2022/06/25 09:14:37;;;;;;;8.73;2.00;;;23.50;60.90;;;;;;4977929;28;87290;-71
2022/06/25 09:17:09;;;;;;;14.07;2.97;;;23.50;60.60;;;;;;4978728;28;87705;-71
2022/06/25 09:19:43;;;;;;;9.48;2.00;;;23.50;60.90;;;;;;4972513;28;90976;-71
2022/06/25 09:22:12;;;;;;;6.55;2.05;;;23.40;61.00;;;;;;4975574;28;87238;-68
2022/06/25 09:24:49;;;;;;;10.13;2.00;;;23.50;61.30;;;;;;4970172;28;87389;-73
2022/06/25 09:27:41;;;;;;;6.60;2.05;;;23.50;61.50;;;;;;4978630;28;89874;-70
2022/06/25 09:30:11;;;;;;;4.82;1.85;;;23.50;61.20;;;;;;4974852;28;89576;-72
2022/06/25 09:32:53;;;;;;;6.95;1.90;;;23.50;61.00;;;;;;4970143;28;90696;-69
2022/06/25 09:35:33;;;;;;;5.35;2.10;;;23.50;61.40;;;;;;4971874;28;87439;-70
2022/06/25 09:38:08;;;;;;;5.28;1.65;;;23.50;61.10;;;;;;4991947;28;89514;-69
2022/06/25 09:40:35;;;;;;;5.88;1.55;;;23.50;61.40;;;;;;4974498;28;88030;-69
2022/06/25 09:43:18;;;;;;;7.07;2.22;;;23.50;61.30;;;;;;4969832;28;87682;-72
2022/06/25 09:45:49;;;;;;;4.25;1.50;;;23.50;61.60;;;;;;4974434;28;87504;-69
2022/06/25 09:48:25;;;;;;;4.15;1.48;;;23.50;61.70;;;;;;4974187;28;90136;-72
2022/06/25 09:51:14;;;;;;;7.50;1.30;;;23.50;61.60;;;;;;4973140;28;90892;-72
2022/06/25 09:54:00;;;;;;;4.50;1.65;;;23.50;61.90;;;;;;4975717;28;88733;-70
2022/06/25 09:56:28;;;;;;;6.20;1.70;;;23.50;61.80;;;;;;4974791;28;88864;-70
2022/06/25 09:58:55;;;;;;;6.40;1.77;;;23.50;61.70;;;;;;4969488;28;89295;-70
2022/06/25 10:01:29;;;;;;;3.38;1.33;;;23.50;61.60;;;;;;4973617;28;90214;-70
2022/06/25 10:03:57;;;;;;;4.50;1.20;;;23.50;61.70;;;;;;4972770;28;87259;-69
2022/06/25 10:06:24;;;;;;;5.10;1.67;;;23.50;61.90;;;;;;4969989;28;87972;-74
2022/06/25 10:08:52;;;;;;;5.45;1.73;;;23.50;61.90;;;;;;4971774;28;87376;-69
2022/06/25 10:11:20;;;;;;;3.67;1.48;;;23.50;62.60;;;;;;4985059;28;91778;-73
2022/06/25 10:13:48;;;;;;;3.15;1.25;;;23.50;62.40;;;;;;4975480;28;87842;-69
2022/06/25 10:16:16;;;;;;;4.47;1.52;;;23.50;62.80;;;;;;4979721;28;86957;-69
2022/06/25 10:18:43;;;;;;;4.95;1.40;;;23.50;62.40;;;;;;4975074;28;86985;-73
2022/06/25 10:21:09;;;;;;;4.13;1.23;;;23.60;62.30;;;;;;4969808;28;89730;-68
2022/06/25 10:23:37;;;;;;;6.25;1.30;;;23.50;62.20;;;;;;4968861;28;91646;-68
2022/06/25 10:26:04;;;;;;;3.42;1.50;;;23.50;62.60;;;;;;4974076;28;87388;-71
2022/06/25 10:28:30;;;;;;;6.25;1.20;;;23.50;62.20;;;;;;4975565;28;87978;-70
2022/06/25 10:30:57;;;;;;;2.70;1.20;;;23.50;61.90;;;;;;4975287;28;91044;-69
2022/06/25 10:33:28;;;;;;;4.60;1.55;;;23.50;62.10;;;;;;4975365;28;91106;-70
2022/06/25 10:36:06;;;;;;;3.15;1.20;;;23.50;62.00;;;;;;4988893;28;87290;-68
2022/06/25 10:38:32;;;;;;;4.25;1.30;;;23.50;61.50;;;;;;4973880;28;89852;-69
2022/06/25 10:43:57;;;;;;;4.20;1.30;;;23.50;61.90;;;;;;4975311;28;87799;-70
2022/06/25 10:46:37;;;;;;;2.08;1.08;;;23.60;61.90;;;;;;4980432;28;88197;-69
2022/06/25 10:49:08;;;;;;;;;;;23.60;61.90;;;;;;4978653;28;87546;-69
2022/06/25 10:51:41;;;;;;;4.72;1.55;;;23.60;62.00;;;;;;4978067;28;87889;-69
2022/06/25 10:54:12;;;;;;;2.55;1.15;;;23.60;61.90;;;;;;4979358;28;89871;-72
2022/06/25 10:56:47;;;;;;;3.85;1.33;;;23.60;61.60;;;;;;4972895;28;88224;-73
2022/06/25 10:59:32;;;;;;;4.43;1.20;;;23.60;61.20;;;;;;4968507;28;90125;-69
2022/06/25 11:02:03;;;;;;;2.78;1.40;;;23.60;61.40;;;;;;4967240;28;90328;-73
2022/06/25 11:04:30;;;;;;;3.85;1.20;;;23.50;61.30;;;;;;4978010;28;87889;-68
2022/06/25 11:07:19;;;;;;;2.17;1.08;;;23.50;61.20;;;;;;4971865;28;87222;-71
2022/06/25 11:09:53;;;;;;;8.05;1.90;;;23.60;62.10;;;;;;4974956;28;88196;-72
2022/06/25 11:12:20;;;;;;;10.77;2.10;;;23.60;62.60;;;;;;4971218;28;88882;-71
2022/06/25 11:15:09;;;;;;;8.48;2.05;;;23.60;62.60;;;;;;4972118;28;89496;-73
2022/06/25 11:17:35;;;;;;;13.93;2.35;;;23.60;63.10;;;;;;4969458;28;87783;-69
2022/06/25 11:20:12;;;;;;;10.57;2.42;;;23.60;63.60;;;;;;4973350;28;88136;-70
2022/06/25 11:22:47;;;;;;;8.40;2.15;;;23.60;64.70;;;;;;4973537;28;87819;-71
2022/06/25 11:30:42;;;;;;;10.45;2.17;;;23.60;64.50;;;;;;4976798;28;86542;-69
2022/06/25 11:33:09;;;;;;;8.50;2.33;;;23.60;64.60;;;;;;4972037;28;88017;-70
2022/06/25 11:35:43;;;;;;;14.05;3.17;;;23.60;65.10;;;;;;4974323;28;87806;-69
2022/06/25 11:38:15;;;;;;;10.52;2.58;;;23.60;66.10;;;;;;4975303;28;88413;-74
2022/06/25 11:40:41;;;;;;;12.32;2.83;;;23.70;65.60;;;;;;4986098;28;89126;-69
2022/06/25 11:43:08;;;;;;;8.10;2.97;;;23.70;65.50;;;;;;4965984;28;87535;-71
2022/06/25 11:45:49;;;;;;;11.50;2.55;;;23.70;65.50;;;;;;4970044;28;87957;-69
2022/06/25 11:48:15;;;;;;;15.73;2.65;;;23.70;65.20;;;;;;4974361;28;87199;-69
2022/06/25 11:50:41;;;;;;;12.07;2.53;;;23.70;65.60;;;;;;4972491;28;89211;-69
2022/06/25 11:53:11;;;;;;;13.88;3.00;;;23.70;65.60;;;;;;4975935;28;88108;-70
2022/06/25 11:55:39;;;;;;;10.50;2.60;;;23.70;66.00;;;;;;4984696;28;89252;-69
2022/06/25 11:58:05;;;;;;;10.05;2.33;;;23.70;66.00;;;;;;4973171;28;87793;-70
2022/06/25 12:00:31;;;;;;;13.27;2.60;;;23.70;65.60;;;;;;4977171;28;88195;-70
2022/06/25 12:03:04;;;;;;;9.35;3.05;;;23.70;65.80;;;;;;4970095;28;89097;-69
2022/06/25 12:05:31;;;;;;;8.00;3.20;;;23.70;65.70;;;;;;4974975;28;89412;-69
2022/06/25 12:07:57;;;;;;;16.67;4.35;;;23.70;66.00;;;;;;4976192;28;87749;-70
2022/06/25 12:10:23;;;;;;;25.45;4.75;;;23.70;66.60;;;;;;4975484;28;87200;-70
2022/06/25 12:13:08;;;;;;;14.80;4.05;;;23.70;67.20;;;;;;4981696;28;88126;-72
2022/06/25 12:15:35;;;;;;;27.40;6.13;;;23.70;66.80;;;;;;4992641;28;90257;-69
2022/06/25 12:18:05;;;;;;;23.10;5.75;;;23.70;67.60;;;;;;4976558;28;87596;-70
2022/06/25 12:20:31;;;;;;;23.33;5.85;;;23.70;67.40;;;;;;4973779;28;87562;-70
2022/06/25 12:22:57;;;;;;;19.73;4.80;;;23.70;68.00;;;;;;4974894;28;87969;-73
2022/06/25 12:25:28;;;;;;;20.90;5.47;;;23.80;69.60;;;;;;4978059;28;88139;-72
2022/06/25 12:27:54;;;;;;;30.60;5.82;;;23.90;68.50;;;;;;4978925;28;88997;-71
2022/06/25 12:30:31;;;;;;;33.35;6.65;;;23.90;68.40;;;;;;4971827;28;87452;-71
2022/06/25 12:33:13;;;;;;;27.02;6.10;;;23.90;68.30;;;;;;4973364;28;87631;-70
2022/06/25 12:35:43;;;;;;;28.27;7.28;;;23.90;68.20;;;;;;4968973;28;91143;-71
2022/06/25 12:38:11;;;;;;;29.40;6.82;;;24.00;68.00;;;;;;4972884;28;88003;-70
2022/06/25 12:40:38;;;;;;;27.25;7.25;;;24.00;68.20;;;;;;4972195;28;89399;-72
2022/06/25 12:43:06;;;;;;;30.15;7.38;;;24.00;68.20;;;;;;4969632;28;88193;-70
2022/06/25 12:45:33;;;;;;;26.00;6.85;;;24.00;68.60;;;;;;4974598;28;88643;-71
2022/06/25 12:47:59;;;;;;;28.80;6.85;;;24.00;68.60;;;;;;4977282;28;87471;-72
2022/06/25 12:50:30;;;;;;;23.40;6.60;;;24.00;68.60;;;;;;4973767;28;87035;-71
2022/06/25 12:53:09;;;;;;;21.13;5.93;;;24.00;68.70;;;;;;4971125;28;92450;-69
2022/06/25 12:55:36;;;;;;;17.40;5.75;;;24.00;68.80;;;;;;4974513;28;89413;-69
2022/06/25 12:58:07;;;;;;;27.27;5.47;;;24.00;68.70;;;;;;4972884;28;88095;-69
2022/06/25 13:00:34;;;;;;;28.75;6.20;;;24.00;68.20;;;;;;4973435;28;88412;-72
2022/06/25 13:03:00;;;;;;;23.33;5.65;;;24.00;68.90;;;;;;4974325;28;88161;-72
2022/06/25 13:05:26;;;;;;;17.75;5.30;;;24.00;69.20;;;;;;4972749;28;88171;-69
2022/06/25 13:07:51;;;;;;;21.02;5.35;;;24.00;68.80;;;;;;4974051;28;88106;-71
2022/06/25 13:10:17;;;;;;;26.88;5.60;;;23.90;69.20;;;;;;4971975;28;88186;-69
2022/06/25 13:12:43;;;;;;;27.73;7.35;;;23.90;70.00;;;;;;4974056;28;87836;-70